sensor_id;sensor_type;location;lat;lon;timestamp;temperature;humidity
52899;DHT22;38763;53.096;6.062;2023-09-30T00:01:00;12.30;99.90
52899;DHT22;38763;53.096;6.062;2023-09-30T00:03:27;12.30;99.90
52899;DHT22;38763;53.096;6.062;2023-09-30T00:05:53;12.30;99.90
52899;DHT22;38763;53.096;6.062;2023-09-30T00:08:18;12.30;99.90
52899;DHT22;38763;53.096;6.062;2023-09-30T00:10:44;12.30;99.90
52899;DHT22;38763;53.096;6.062;2023-09-30T00:13:11;12.30;99.90
52899;DHT22;38763;53.096;6.062;2023-09-30T00:15:36;12.30;99.90
52899;DHT22;38763;53.096;6.062;2023-09-30T00:18:02;12.30;99.90
52899;DHT22;38763;53.096;6.062;2023-09-30T00:20:28;12.30;99.90
52899;DHT22;38763;53.096;6.062;2023-09-30T00:22:54;12.30;99.90
52899;DHT22;38763;53.096;6.062;2023-09-30T00:25:20;12.40;99.90
52899;DHT22;38763;53.096;6.062;2023-09-30T00:27:46;12.40;99.90
52899;DHT22;38763;53.096;6.062;2023-09-30T00:30:12;12.40;99.90
52899;DHT22;38763;53.096;6.062;2023-09-30T00:32:38;12.40;99.90
52899;DHT22;38763;53.096;6.062;2023-09-30T00:35:05;12.40;99.90
52899;DHT22;38763;53.096;6.062;2023-09-30T00:37:37;12.30;99.90
52899;DHT22;38763;53.096;6.062;2023-09-30T00:40:03;12.30;99.90
52899;DHT22;38763;53.096;6.062;2023-09-30T00:42:29;12.30;99.90
52899;DHT22;38763;53.096;6.062;2023-09-30T00:44:55;12.30;99.90
52899;DHT22;38763;53.096;6.062;2023-09-30T00:47:21;12.30;99.90
52899;DHT22;38763;53.096;6.062;2023-09-30T00:49:46;12.30;99.90
52899;DHT22;38763;53.096;6.062;2023-09-30T00:52:12;12.30;99.90
52899;DHT22;38763;53.096;6.062;2023-09-30T00:54:38;12.30;99.90
52899;DHT22;38763;53.096;6.062;2023-09-30T00:57:05;12.40;99.90
52899;DHT22;38763;53.096;6.062;2023-09-30T00:59:31;12.40;99.90
52899;DHT22;38763;53.096;6.062;2023-09-30T01:01:59;12.50;99.90
52899;DHT22;38763;53.096;6.062;2023-09-30T01:04:27;12.40;99.90
52899;DHT22;38763;53.096;6.062;2023-09-30T01:06:53;12.50;99.90
52899;DHT22;38763;53.096;6.062;2023-09-30T01:09:20;12.50;99.90
52899;DHT22;38763;53.096;6.062;2023-09-30T01:11:45;12.50;99.90
52899;DHT22;38763;53.096;6.062;2023-09-30T01:14:33;12.50;99.90
52899;DHT22;38763;53.096;6.062;2023-09-30T01:17:06;12.40;99.90
52899;DHT22;38763;53.096;6.062;2023-09-30T01:19:35;12.50;99.90
52899;DHT22;38763;53.096;6.062;2023-09-30T01:22:00;12.50;99.90
52899;DHT22;38763;53.096;6.062;2023-09-30T01:24:31;12.40;99.90
52899;DHT22;38763;53.096;6.062;2023-09-30T01:27:03;12.60;99.90
52899;DHT22;38763;53.096;6.062;2023-09-30T01:29:28;12.50;99.90
52899;DHT22;38763;53.096;6.062;2023-09-30T01:31:54;12.60;99.90
52899;DHT22;38763;53.096;6.062;2023-09-30T01:34:21;12.60;99.90
52899;DHT22;38763;53.096;6.062;2023-09-30T01:36:46;12.60;99.90
52899;DHT22;38763;53.096;6.062;2023-09-30T01:39:12;12.70;99.90
52899;DHT22;38763;53.096;6.062;2023-09-30T01:41:39;12.70;99.90
52899;DHT22;38763;53.096;6.062;2023-09-30T01:44:06;12.80;99.90
52899;DHT22;38763;53.096;6.062;2023-09-30T01:46:31;12.70;99.90
52899;DHT22;38763;53.096;6.062;2023-09-30T01:48:57;12.60;99.90
52899;DHT22;38763;53.096;6.062;2023-09-30T01:51:23;12.70;99.90
52899;DHT22;38763;53.096;6.062;2023-09-30T01:53:49;12.70;99.90
52899;DHT22;38763;53.096;6.062;2023-09-30T01:56:14;12.70;99.90
52899;DHT22;38763;53.096;6.062;2023-09-30T01:58:40;12.80;99.90
52899;DHT22;38763;53.096;6.062;2023-09-30T02:01:06;12.80;99.90
52899;DHT22;38763;53.096;6.062;2023-09-30T02:03:32;12.90;99.90
52899;DHT22;38763;53.096;6.062;2023-09-30T02:05:58;12.90;99.90
52899;DHT22;38763;53.096;6.062;2023-09-30T02:08:23;13.00;99.90
52899;DHT22;38763;53.096;6.062;2023-09-30T02:10:49;13.00;99.90
52899;DHT22;38763;53.096;6.062;2023-09-30T02:13:17;13.00;99.90
52899;DHT22;38763;53.096;6.062;2023-09-30T02:15:43;13.10;99.90
52899;DHT22;38763;53.096;6.062;2023-09-30T02:18:09;13.10;99.90
52899;DHT22;38763;53.096;6.062;2023-09-30T02:20:36;13.10;99.90
52899;DHT22;38763;53.096;6.062;2023-09-30T02:23:09;13.10;99.90
52899;DHT22;38763;53.096;6.062;2023-09-30T02:25:39;13.10;99.90
52899;DHT22;38763;53.096;6.062;2023-09-30T02:28:06;13.00;99.90
52899;DHT22;38763;53.096;6.062;2023-09-30T02:30:32;13.00;99.90
52899;DHT22;38763;53.096;6.062;2023-09-30T02:32:57;13.00;99.90
52899;DHT22;38763;53.096;6.062;2023-09-30T02:35:23;13.00;99.90
52899;DHT22;38763;53.096;6.062;2023-09-30T02:37:49;13.10;99.90
52899;DHT22;38763;53.096;6.062;2023-09-30T02:40:18;13.10;99.90
52899;DHT22;38763;53.096;6.062;2023-09-30T02:42:43;13.10;99.90
52899;DHT22;38763;53.096;6.062;2023-09-30T02:45:10;13.10;99.90
52899;DHT22;38763;53.096;6.062;2023-09-30T02:47:37;13.10;99.90
52899;DHT22;38763;53.096;6.062;2023-09-30T02:50:06;13.10;99.90
52899;DHT22;38763;53.096;6.062;2023-09-30T02:52:34;13.00;99.90
52899;DHT22;38763;53.096;6.062;2023-09-30T02:55:00;12.90;99.90
52899;DHT22;38763;53.096;6.062;2023-09-30T02:57:26;12.90;99.90
52899;DHT22;38763;53.096;6.062;2023-09-30T02:59:53;12.80;99.90
52899;DHT22;38763;53.096;6.062;2023-09-30T03:02:20;12.80;99.90
52899;DHT22;38763;53.096;6.062;2023-09-30T03:04:46;12.80;99.90
52899;DHT22;38763;53.096;6.062;2023-09-30T03:07:13;12.70;99.90
52899;DHT22;38763;53.096;6.062;2023-09-30T03:09:39;12.70;99.90
52899;DHT22;38763;53.096;6.062;2023-09-30T03:12:05;12.60;99.90
52899;DHT22;38763;53.096;6.062;2023-09-30T03:14:31;12.60;99.90
52899;DHT22;38763;53.096;6.062;2023-09-30T03:17:00;12.70;99.90
52899;DHT22;38763;53.096;6.062;2023-09-30T03:19:26;12.70;99.90
52899;DHT22;38763;53.096;6.062;2023-09-30T03:21:51;12.50;99.90
52899;DHT22;38763;53.096;6.062;2023-09-30T03:24:17;12.50;99.90
52899;DHT22;38763;53.096;6.062;2023-09-30T03:26:43;12.50;99.90
52899;DHT22;38763;53.096;6.062;2023-09-30T03:29:09;12.50;99.90
52899;DHT22;38763;53.096;6.062;2023-09-30T03:31:35;12.40;99.90
52899;DHT22;38763;53.096;6.062;2023-09-30T03:34:02;12.40;99.90
52899;DHT22;38763;53.096;6.062;2023-09-30T03:36:29;12.30;99.90
52899;DHT22;38763;53.096;6.062;2023-09-30T03:38:55;12.30;99.90
52899;DHT22;38763;53.096;6.062;2023-09-30T03:41:22;12.30;99.90
52899;DHT22;38763;53.096;6.062;2023-09-30T03:43:48;12.30;99.90
52899;DHT22;38763;53.096;6.062;2023-09-30T03:46:14;12.30;99.90
52899;DHT22;38763;53.096;6.062;2023-09-30T03:48:41;12.20;99.90
52899;DHT22;38763;53.096;6.062;2023-09-30T03:51:11;12.20;99.90
52899;DHT22;38763;53.096;6.062;2023-09-30T03:53:49;12.20;99.90
52899;DHT22;38763;53.096;6.062;2023-09-30T03:56:14;12.20;99.90
52899;DHT22;38763;53.096;6.062;2023-09-30T03:58:41;12.20;99.90
52899;DHT22;38763;53.096;6.062;2023-09-30T04:01:08;12.10;99.90
52899;DHT22;38763;53.096;6.062;2023-09-30T04:03:38;12.20;99.90
52899;DHT22;38763;53.096;6.062;2023-09-30T04:06:09;12.30;99.90
52899;DHT22;38763;53.096;6.062;2023-09-30T04:08:35;12.20;99.90
52899;DHT22;38763;53.096;6.062;2023-09-30T04:11:01;12.30;99.90
52899;DHT22;38763;53.096;6.062;2023-09-30T04:13:28;12.20;99.90
52899;DHT22;38763;53.096;6.062;2023-09-30T04:15:55;12.30;99.90
52899;DHT22;38763;53.096;6.062;2023-09-30T04:18:21;12.30;99.90
52899;DHT22;38763;53.096;6.062;2023-09-30T04:20:48;12.30;99.90
52899;DHT22;38763;53.096;6.062;2023-09-30T04:23:14;12.20;99.90
52899;DHT22;38763;53.096;6.062;2023-09-30T04:25:40;12.30;99.90
52899;DHT22;38763;53.096;6.062;2023-09-30T04:28:06;12.20;99.90
52899;DHT22;38763;53.096;6.062;2023-09-30T04:30:35;12.30;99.90
52899;DHT22;38763;53.096;6.062;2023-09-30T04:33:01;12.30;99.90
52899;DHT22;38763;53.096;6.062;2023-09-30T04:35:29;12.30;99.90
52899;DHT22;38763;53.096;6.062;2023-09-30T04:37:56;12.20;99.90
52899;DHT22;38763;53.096;6.062;2023-09-30T04:40:22;12.20;99.90
52899;DHT22;38763;53.096;6.062;2023-09-30T04:42:48;12.20;99.90
52899;DHT22;38763;53.096;6.062;2023-09-30T04:45:14;12.20;99.90
52899;DHT22;38763;53.096;6.062;2023-09-30T04:47:45;12.10;99.90
52899;DHT22;38763;53.096;6.062;2023-09-30T04:50:11;12.10;99.90
52899;DHT22;38763;53.096;6.062;2023-09-30T04:52:40;12.10;99.90
52899;DHT22;38763;53.096;6.062;2023-09-30T04:55:06;12.00;99.90
52899;DHT22;38763;53.096;6.062;2023-09-30T04:57:32;12.00;99.90
52899;DHT22;38763;53.096;6.062;2023-09-30T04:59:58;12.00;99.90
52899;DHT22;38763;53.096;6.062;2023-09-30T05:02:24;12.10;99.90
52899;DHT22;38763;53.096;6.062;2023-09-30T05:04:50;12.10;99.90
52899;DHT22;38763;53.096;6.062;2023-09-30T05:07:16;12.00;99.90
52899;DHT22;38763;53.096;6.062;2023-09-30T05:09:41;12.00;99.90
52899;DHT22;38763;53.096;6.062;2023-09-30T05:12:08;12.00;99.90
52899;DHT22;38763;53.096;6.062;2023-09-30T05:14:34;11.90;99.90
52899;DHT22;38763;53.096;6.062;2023-09-30T05:17:00;11.90;99.90
52899;DHT22;38763;53.096;6.062;2023-09-30T05:19:26;11.90;99.90
52899;DHT22;38763;53.096;6.062;2023-09-30T05:21:52;11.90;99.90
52899;DHT22;38763;53.096;6.062;2023-09-30T05:24:18;11.90;99.90
52899;DHT22;38763;53.096;6.062;2023-09-30T05:26:46;11.90;99.90
52899;DHT22;38763;53.096;6.062;2023-09-30T05:29:12;11.90;99.90
52899;DHT22;38763;53.096;6.062;2023-09-30T05:31:38;11.80;99.90
52899;DHT22;38763;53.096;6.062;2023-09-30T05:34:04;11.90;99.90
52899;DHT22;38763;53.096;6.062;2023-09-30T05:36:30;11.90;99.90
52899;DHT22;38763;53.096;6.062;2023-09-30T05:38:55;11.90;99.90
52899;DHT22;38763;53.096;6.062;2023-09-30T05:41:21;11.80;99.90
52899;DHT22;38763;53.096;6.062;2023-09-30T05:43:47;11.90;99.90
52899;DHT22;38763;53.096;6.062;2023-09-30T05:46:13;11.80;99.90
52899;DHT22;38763;53.096;6.062;2023-09-30T05:48:39;11.80;99.90
52899;DHT22;38763;53.096;6.062;2023-09-30T05:51:05;11.90;99.90
52899;DHT22;38763;53.096;6.062;2023-09-30T05:53:31;11.80;99.90
52899;DHT22;38763;53.096;6.062;2023-09-30T05:55:58;11.80;99.90
52899;DHT22;38763;53.096;6.062;2023-09-30T05:58:25;11.80;99.90
52899;DHT22;38763;53.096;6.062;2023-09-30T06:00:54;11.80;99.90
52899;DHT22;38763;53.096;6.062;2023-09-30T06:03:20;11.70;99.90
52899;DHT22;38763;53.096;6.062;2023-09-30T06:05:48;11.70;99.90
52899;DHT22;38763;53.096;6.062;2023-09-30T06:08:14;11.80;99.90
52899;DHT22;38763;53.096;6.062;2023-09-30T06:10:41;11.70;99.90
52899;DHT22;38763;53.096;6.062;2023-09-30T06:13:12;11.80;99.90
52899;DHT22;38763;53.096;6.062;2023-09-30T06:15:40;11.80;99.90
52899;DHT22;38763;53.096;6.062;2023-09-30T06:18:06;11.70;99.90
52899;DHT22;38763;53.096;6.062;2023-09-30T06:20:32;11.70;99.90
52899;DHT22;38763;53.096;6.062;2023-09-30T06:23:02;11.80;99.90
52899;DHT22;38763;53.096;6.062;2023-09-30T06:25:27;11.80;99.90
52899;DHT22;38763;53.096;6.062;2023-09-30T06:27:54;11.90;99.90
52899;DHT22;38763;53.096;6.062;2023-09-30T06:30:23;11.80;99.90
52899;DHT22;38763;53.096;6.062;2023-09-30T06:32:56;11.90;99.90
52899;DHT22;38763;53.096;6.062;2023-09-30T06:35:22;12.00;99.90
52899;DHT22;38763;53.096;6.062;2023-09-30T06:37:48;12.00;99.90
52899;DHT22;38763;53.096;6.062;2023-09-30T06:40:14;12.10;99.90
52899;DHT22;38763;53.096;6.062;2023-09-30T06:42:40;12.10;99.90
52899;DHT22;38763;53.096;6.062;2023-09-30T06:45:07;12.20;99.90
52899;DHT22;38763;53.096;6.062;2023-09-30T06:47:39;12.20;99.90
52899;DHT22;38763;53.096;6.062;2023-09-30T06:50:11;12.30;99.90
52899;DHT22;38763;53.096;6.062;2023-09-30T06:52:42;12.30;99.90
52899;DHT22;38763;53.096;6.062;2023-09-30T06:55:11;12.40;99.90
52899;DHT22;38763;53.096;6.062;2023-09-30T06:57:39;12.40;99.90
52899;DHT22;38763;53.096;6.062;2023-09-30T07:00:09;12.40;99.90
52899;DHT22;38763;53.096;6.062;2023-09-30T07:02:37;12.40;99.90
52899;DHT22;38763;53.096;6.062;2023-09-30T07:05:11;12.50;99.90
52899;DHT22;38763;53.096;6.062;2023-09-30T07:07:36;12.50;99.90
52899;DHT22;38763;53.096;6.062;2023-09-30T07:10:03;12.50;99.90
52899;DHT22;38763;53.096;6.062;2023-09-30T07:12:32;12.60;99.90
52899;DHT22;38763;53.096;6.062;2023-09-30T07:15:04;12.70;99.90
52899;DHT22;38763;53.096;6.062;2023-09-30T07:17:30;12.70;99.90
52899;DHT22;38763;53.096;6.062;2023-09-30T07:19:57;12.80;99.90
52899;DHT22;38763;53.096;6.062;2023-09-30T07:22:22;12.90;99.90
52899;DHT22;38763;53.096;6.062;2023-09-30T07:24:48;12.90;99.90
52899;DHT22;38763;53.096;6.062;2023-09-30T07:27:14;13.00;99.90
52899;DHT22;38763;53.096;6.062;2023-09-30T07:29:39;13.00;99.90
52899;DHT22;38763;53.096;6.062;2023-09-30T07:32:07;13.10;99.90
52899;DHT22;38763;53.096;6.062;2023-09-30T07:34:33;13.20;99.90
52899;DHT22;38763;53.096;6.062;2023-09-30T07:36:59;13.30;99.90
52899;DHT22;38763;53.096;6.062;2023-09-30T07:39:24;13.40;99.90
52899;DHT22;38763;53.096;6.062;2023-09-30T07:41:50;13.40;99.90
52899;DHT22;38763;53.096;6.062;2023-09-30T07:44:16;13.50;99.90
52899;DHT22;38763;53.096;6.062;2023-09-30T07:46:41;13.50;99.90
52899;DHT22;38763;53.096;6.062;2023-09-30T07:49:11;13.60;99.90
52899;DHT22;38763;53.096;6.062;2023-09-30T07:51:37;13.70;99.90
52899;DHT22;38763;53.096;6.062;2023-09-30T07:54:05;13.80;99.90
52899;DHT22;38763;53.096;6.062;2023-09-30T07:56:31;13.80;99.90
52899;DHT22;38763;53.096;6.062;2023-09-30T07:58:57;13.90;99.90
52899;DHT22;38763;53.096;6.062;2023-09-30T08:01:22;13.90;99.90
52899;DHT22;38763;53.096;6.062;2023-09-30T08:03:48;14.00;99.90
52899;DHT22;38763;53.096;6.062;2023-09-30T08:06:14;14.20;99.90
52899;DHT22;38763;53.096;6.062;2023-09-30T08:08:40;14.20;99.90
52899;DHT22;38763;53.096;6.062;2023-09-30T08:11:06;14.30;99.90
52899;DHT22;38763;53.096;6.062;2023-09-30T08:13:32;14.30;99.90
52899;DHT22;38763;53.096;6.062;2023-09-30T08:15:59;14.50;99.90
52899;DHT22;38763;53.096;6.062;2023-09-30T08:18:24;14.50;99.90
52899;DHT22;38763;53.096;6.062;2023-09-30T08:20:50;14.60;99.90
52899;DHT22;38763;53.096;6.062;2023-09-30T08:23:16;14.70;99.90
52899;DHT22;38763;53.096;6.062;2023-09-30T08:25:41;14.80;99.90
52899;DHT22;38763;53.096;6.062;2023-09-30T08:28:07;15.00;99.90
52899;DHT22;38763;53.096;6.062;2023-09-30T08:30:35;14.90;99.90
52899;DHT22;38763;53.096;6.062;2023-09-30T08:33:02;15.00;99.90
52899;DHT22;38763;53.096;6.062;2023-09-30T08:35:29;15.10;99.90
52899;DHT22;38763;53.096;6.062;2023-09-30T08:37:55;15.20;99.90
52899;DHT22;38763;53.096;6.062;2023-09-30T08:40:21;15.20;99.90
52899;DHT22;38763;53.096;6.062;2023-09-30T08:42:52;15.30;99.90
52899;DHT22;38763;53.096;6.062;2023-09-30T08:45:18;15.40;99.90
52899;DHT22;38763;53.096;6.062;2023-09-30T08:47:45;15.40;99.90
52899;DHT22;38763;53.096;6.062;2023-09-30T08:50:16;15.50;99.90
52899;DHT22;38763;53.096;6.062;2023-09-30T08:52:44;15.50;99.90
52899;DHT22;38763;53.096;6.062;2023-09-30T08:55:11;15.60;99.90
52899;DHT22;38763;53.096;6.062;2023-09-30T08:57:39;15.60;99.90
52899;DHT22;38763;53.096;6.062;2023-09-30T09:00:06;15.70;99.90
52899;DHT22;38763;53.096;6.062;2023-09-30T09:02:34;15.70;99.90
52899;DHT22;38763;53.096;6.062;2023-09-30T09:05:01;15.80;99.90
52899;DHT22;38763;53.096;6.062;2023-09-30T09:07:27;15.80;99.90
52899;DHT22;38763;53.096;6.062;2023-09-30T09:10:03;15.80;99.90
52899;DHT22;38763;53.096;6.062;2023-09-30T09:12:29;15.90;99.90
52899;DHT22;38763;53.096;6.062;2023-09-30T09:14:55;15.90;99.90
52899;DHT22;38763;53.096;6.062;2023-09-30T09:17:21;15.90;99.90
52899;DHT22;38763;53.096;6.062;2023-09-30T09:20:00;16.00;99.90
52899;DHT22;38763;53.096;6.062;2023-09-30T09:22:43;16.10;99.90
52899;DHT22;38763;53.096;6.062;2023-09-30T09:25:10;16.20;99.90
52899;DHT22;38763;53.096;6.062;2023-09-30T09:27:36;16.20;99.90
52899;DHT22;38763;53.096;6.062;2023-09-30T09:30:18;16.30;99.90
52899;DHT22;38763;53.096;6.062;2023-09-30T09:33:10;16.40;99.90
52899;DHT22;38763;53.096;6.062;2023-09-30T09:35:36;16.40;99.90
52899;DHT22;38763;53.096;6.062;2023-09-30T09:40:31;16.60;99.90
52899;DHT22;38763;53.096;6.062;2023-09-30T09:42:58;16.60;99.90
52899;DHT22;38763;53.096;6.062;2023-09-30T09:45:26;16.60;99.90
52899;DHT22;38763;53.096;6.062;2023-09-30T09:47:53;16.70;99.90
52899;DHT22;38763;53.096;6.062;2023-09-30T09:50:20;16.70;99.90
52899;DHT22;38763;53.096;6.062;2023-09-30T09:52:51;16.70;99.90
52899;DHT22;38763;53.096;6.062;2023-09-30T09:55:19;16.70;99.90
52899;DHT22;38763;53.096;6.062;2023-09-30T09:57:48;16.80;99.90
52899;DHT22;38763;53.096;6.062;2023-09-30T10:00:32;16.90;99.90
52899;DHT22;38763;53.096;6.062;2023-09-30T10:02:59;16.90;99.90
52899;DHT22;38763;53.096;6.062;2023-09-30T10:05:25;16.80;99.90
52899;DHT22;38763;53.096;6.062;2023-09-30T10:07:57;16.80;99.90
52899;DHT22;38763;53.096;6.062;2023-09-30T10:10:26;16.80;99.90
52899;DHT22;38763;53.096;6.062;2023-09-30T10:12:52;16.90;99.90
52899;DHT22;38763;53.096;6.062;2023-09-30T10:17:59;17.10;99.90
52899;DHT22;38763;53.096;6.062;2023-09-30T10:20:32;17.30;99.90
52899;DHT22;38763;53.096;6.062;2023-09-30T10:25:43;17.60;99.90
52899;DHT22;38763;53.096;6.062;2023-09-30T10:28:40;17.70;99.90
52899;DHT22;38763;53.096;6.062;2023-09-30T10:31:22;17.80;99.90
52899;DHT22;38763;53.096;6.062;2023-09-30T10:36:36;17.90;99.90
52899;DHT22;38763;53.096;6.062;2023-09-30T10:39:11;17.90;99.90
52899;DHT22;38763;53.096;6.062;2023-09-30T10:46:51;17.50;99.90
52899;DHT22;38763;53.096;6.062;2023-09-30T10:49:30;17.30;99.90
52899;DHT22;38763;53.096;6.062;2023-09-30T10:51:58;17.10;99.90
52899;DHT22;38763;53.096;6.062;2023-09-30T10:54:29;17.00;99.90
52899;DHT22;38763;53.096;6.062;2023-09-30T10:56:55;16.90;99.90
52899;DHT22;38763;53.096;6.062;2023-09-30T10:59:25;16.90;99.90
52899;DHT22;38763;53.096;6.062;2023-09-30T11:01:52;16.90;99.90
52899;DHT22;38763;53.096;6.062;2023-09-30T11:04:19;17.10;99.90
52899;DHT22;38763;53.096;6.062;2023-09-30T11:06:46;17.20;99.90
52899;DHT22;38763;53.096;6.062;2023-09-30T11:09:19;17.40;99.90
52899;DHT22;38763;53.096;6.062;2023-09-30T11:11:52;17.60;99.90
52899;DHT22;38763;53.096;6.062;2023-09-30T11:16:50;17.70;99.90
52899;DHT22;38763;53.096;6.062;2023-09-30T11:19:17;17.70;99.90
52899;DHT22;38763;53.096;6.062;2023-09-30T11:21:43;17.80;99.90
52899;DHT22;38763;53.096;6.062;2023-09-30T11:24:09;17.80;99.90
52899;DHT22;38763;53.096;6.062;2023-09-30T11:26:35;17.90;99.90
52899;DHT22;38763;53.096;6.062;2023-09-30T11:29:11;17.90;99.90
52899;DHT22;38763;53.096;6.062;2023-09-30T11:31:39;17.90;99.90
52899;DHT22;38763;53.096;6.062;2023-09-30T11:34:05;17.90;99.90
52899;DHT22;38763;53.096;6.062;2023-09-30T11:36:35;17.90;99.90
52899;DHT22;38763;53.096;6.062;2023-09-30T11:39:01;17.90;99.90
52899;DHT22;38763;53.096;6.062;2023-09-30T11:41:39;17.90;99.90
52899;DHT22;38763;53.096;6.062;2023-09-30T11:44:13;17.80;99.90
52899;DHT22;38763;53.096;6.062;2023-09-30T11:47:10;17.70;99.90
52899;DHT22;38763;53.096;6.062;2023-09-30T11:49:38;17.80;99.90
52899;DHT22;38763;53.096;6.062;2023-09-30T11:52:10;17.90;99.90
52899;DHT22;38763;53.096;6.062;2023-09-30T11:54:37;17.90;99.90
52899;DHT22;38763;53.096;6.062;2023-09-30T11:57:07;18.00;99.90
52899;DHT22;38763;53.096;6.062;2023-09-30T11:59:39;18.00;99.90
52899;DHT22;38763;53.096;6.062;2023-09-30T12:02:07;18.10;99.90
52899;DHT22;38763;53.096;6.062;2023-09-30T12:04:34;18.10;99.90
52899;DHT22;38763;53.096;6.062;2023-09-30T12:07:00;18.20;99.90
52899;DHT22;38763;53.096;6.062;2023-09-30T12:09:26;18.30;99.90
52899;DHT22;38763;53.096;6.062;2023-09-30T12:11:53;18.30;99.90
52899;DHT22;38763;53.096;6.062;2023-09-30T12:14:20;18.30;99.90
52899;DHT22;38763;53.096;6.062;2023-09-30T12:16:46;18.30;99.90
52899;DHT22;38763;53.096;6.062;2023-09-30T12:19:13;18.30;99.90
52899;DHT22;38763;53.096;6.062;2023-09-30T12:21:41;18.20;99.90
52899;DHT22;38763;53.096;6.062;2023-09-30T12:24:07;18.30;99.90
52899;DHT22;38763;53.096;6.062;2023-09-30T12:26:35;18.30;99.90
52899;DHT22;38763;53.096;6.062;2023-09-30T12:29:01;18.30;99.90
52899;DHT22;38763;53.096;6.062;2023-09-30T12:31:27;18.30;99.90
52899;DHT22;38763;53.096;6.062;2023-09-30T12:33:53;18.30;99.90
52899;DHT22;38763;53.096;6.062;2023-09-30T12:36:19;18.30;99.90
52899;DHT22;38763;53.096;6.062;2023-09-30T12:38:45;18.30;99.90
52899;DHT22;38763;53.096;6.062;2023-09-30T12:41:12;18.40;99.90
52899;DHT22;38763;53.096;6.062;2023-09-30T12:43:38;18.40;99.90
52899;DHT22;38763;53.096;6.062;2023-09-30T12:46:03;18.40;99.90
52899;DHT22;38763;53.096;6.062;2023-09-30T12:48:31;18.40;99.90
52899;DHT22;38763;53.096;6.062;2023-09-30T12:50:56;18.50;99.90
52899;DHT22;38763;53.096;6.062;2023-09-30T12:53:22;18.50;99.90
52899;DHT22;38763;53.096;6.062;2023-09-30T12:55:47;18.50;99.90
52899;DHT22;38763;53.096;6.062;2023-09-30T12:58:13;18.50;99.90
52899;DHT22;38763;53.096;6.062;2023-09-30T13:00:39;18.60;99.90
52899;DHT22;38763;53.096;6.062;2023-09-30T13:03:04;18.60;99.90
52899;DHT22;38763;53.096;6.062;2023-09-30T13:05:30;18.70;99.90
52899;DHT22;38763;53.096;6.062;2023-09-30T13:07:56;18.70;99.90
52899;DHT22;38763;53.096;6.062;2023-09-30T13:10:23;18.70;99.90
52899;DHT22;38763;53.096;6.062;2023-09-30T13:12:49;18.60;99.90
52899;DHT22;38763;53.096;6.062;2023-09-30T13:15:16;18.70;99.90
52899;DHT22;38763;53.096;6.062;2023-09-30T13:17:44;18.70;99.90
52899;DHT22;38763;53.096;6.062;2023-09-30T13:20:10;18.60;99.90
52899;DHT22;38763;53.096;6.062;2023-09-30T13:22:38;18.60;99.90
52899;DHT22;38763;53.096;6.062;2023-09-30T13:25:04;18.60;99.90
52899;DHT22;38763;53.096;6.062;2023-09-30T13:27:31;18.60;99.90
52899;DHT22;38763;53.096;6.062;2023-09-30T13:29:57;18.60;99.90
52899;DHT22;38763;53.096;6.062;2023-09-30T13:32:24;18.60;99.90
52899;DHT22;38763;53.096;6.062;2023-09-30T13:34:53;18.70;99.90
52899;DHT22;38763;53.096;6.062;2023-09-30T13:37:19;18.70;99.90
52899;DHT22;38763;53.096;6.062;2023-09-30T13:39:45;18.80;99.90
52899;DHT22;38763;53.096;6.062;2023-09-30T13:42:11;18.90;99.90
52899;DHT22;38763;53.096;6.062;2023-09-30T13:44:36;19.00;99.90
52899;DHT22;38763;53.096;6.062;2023-09-30T13:47:03;18.90;99.90
52899;DHT22;38763;53.096;6.062;2023-09-30T13:49:29;18.90;99.90
52899;DHT22;38763;53.096;6.062;2023-09-30T13:51:56;18.90;99.90
52899;DHT22;38763;53.096;6.062;2023-09-30T13:54:21;18.90;99.90
52899;DHT22;38763;53.096;6.062;2023-09-30T13:56:47;19.00;99.90
52899;DHT22;38763;53.096;6.062;2023-09-30T13:59:13;18.80;99.90
52899;DHT22;38763;53.096;6.062;2023-09-30T14:01:39;18.70;99.90
52899;DHT22;38763;53.096;6.062;2023-09-30T14:04:07;18.60;99.90
52899;DHT22;38763;53.096;6.062;2023-09-30T14:06:33;18.60;99.90
52899;DHT22;38763;53.096;6.062;2023-09-30T14:08:58;18.60;99.90
52899;DHT22;38763;53.096;6.062;2023-09-30T14:11:24;18.60;99.90
52899;DHT22;38763;53.096;6.062;2023-09-30T14:13:50;18.60;99.90
52899;DHT22;38763;53.096;6.062;2023-09-30T14:16:15;18.60;99.90
52899;DHT22;38763;53.096;6.062;2023-09-30T14:18:41;18.60;99.90
52899;DHT22;38763;53.096;6.062;2023-09-30T14:21:08;18.60;99.90
52899;DHT22;38763;53.096;6.062;2023-09-30T14:23:33;18.60;99.90
52899;DHT22;38763;53.096;6.062;2023-09-30T14:25:59;18.60;99.90
52899;DHT22;38763;53.096;6.062;2023-09-30T14:28:26;18.60;99.90
52899;DHT22;38763;53.096;6.062;2023-09-30T14:30:51;18.70;99.90
52899;DHT22;38763;53.096;6.062;2023-09-30T14:33:17;18.70;99.90
52899;DHT22;38763;53.096;6.062;2023-09-30T14:35:45;18.70;99.90
52899;DHT22;38763;53.096;6.062;2023-09-30T14:38:11;18.70;99.90
52899;DHT22;38763;53.096;6.062;2023-09-30T14:40:40;18.60;99.90
52899;DHT22;38763;53.096;6.062;2023-09-30T14:43:09;18.60;99.90
52899;DHT22;38763;53.096;6.062;2023-09-30T14:45:41;18.60;99.90
52899;DHT22;38763;53.096;6.062;2023-09-30T14:48:10;18.60;99.90
52899;DHT22;38763;53.096;6.062;2023-09-30T14:50:36;18.60;99.90
52899;DHT22;38763;53.096;6.062;2023-09-30T14:53:02;18.60;99.90
52899;DHT22;38763;53.096;6.062;2023-09-30T14:55:28;18.50;99.90
52899;DHT22;38763;53.096;6.062;2023-09-30T14:57:55;18.50;99.90
52899;DHT22;38763;53.096;6.062;2023-09-30T15:00:21;18.50;99.90
52899;DHT22;38763;53.096;6.062;2023-09-30T15:02:50;18.50;99.90
52899;DHT22;38763;53.096;6.062;2023-09-30T15:05:16;18.50;99.90
52899;DHT22;38763;53.096;6.062;2023-09-30T15:07:42;18.60;99.90
52899;DHT22;38763;53.096;6.062;2023-09-30T15:10:08;18.60;99.90
52899;DHT22;38763;53.096;6.062;2023-09-30T15:12:35;18.50;99.90
52899;DHT22;38763;53.096;6.062;2023-09-30T15:15:01;18.50;99.90
52899;DHT22;38763;53.096;6.062;2023-09-30T15:17:27;18.50;99.90
52899;DHT22;38763;53.096;6.062;2023-09-30T15:19:55;18.40;99.90
52899;DHT22;38763;53.096;6.062;2023-09-30T15:22:20;18.40;99.90
52899;DHT22;38763;53.096;6.062;2023-09-30T15:24:46;18.30;99.90
52899;DHT22;38763;53.096;6.062;2023-09-30T15:27:12;18.30;99.90
52899;DHT22;38763;53.096;6.062;2023-09-30T15:29:37;18.30;99.90
52899;DHT22;38763;53.096;6.062;2023-09-30T15:32:03;18.30;99.90
52899;DHT22;38763;53.096;6.062;2023-09-30T15:34:30;18.30;99.90
52899;DHT22;38763;53.096;6.062;2023-09-30T15:36:56;18.20;99.90
52899;DHT22;38763;53.096;6.062;2023-09-30T15:39:22;18.20;99.90
52899;DHT22;38763;53.096;6.062;2023-09-30T15:41:48;18.10;99.90
52899;DHT22;38763;53.096;6.062;2023-09-30T15:44:13;18.10;99.90
52899;DHT22;38763;53.096;6.062;2023-09-30T15:46:39;18.00;99.90
52899;DHT22;38763;53.096;6.062;2023-09-30T15:49:05;18.00;99.90